Terminal Aerodrome Forecast
Issued by NWS Green Bay, WI

Home | Current Version | Previous Version | Graphics & Text | Print | Product List | Glossary On
Versions: 1 2 3 4 5 6 7 8 9 10 11 12 13 14 15 16 17 18 19 20 21 22 23 24 25 26 27 28 29 30 31 32 33
000
FTUS43 KGRB 101124
TAFGRB
TAF
KGRB 101124Z 1012/1112 27009KT P6SM SCT030 BKN045
      TEMPO 1012/1016 SCT045
     FM101600 27008KT P6SM SCT050 SCT070
     FM110400 VRB03KT 6SM -SN OVC040
     FM110600 VRB03KT 3SM -SN OVC030
     FM110900 09003KT 2SM -SN OVC028=

USA.gov is the U.S. government's official web portal to all federal, state and local government web resources and services.